sensor_id;sensor_type;location;lat;lon;timestamp;pressure;altitude;pressure_sealevel;temperature;humidity
27304;BME280;14791;52.392;13.092;2023-09-12T00:02:03;100746.64;;;25.99;41.09
27304;BME280;14791;52.392;13.092;2023-09-12T00:04:32;100753.34;;;25.97;41.17
27304;BME280;14791;52.392;13.092;2023-09-12T00:07:01;100752.91;;;25.93;41.21
27304;BME280;14791;52.392;13.092;2023-09-12T00:09:30;100747.80;;;25.90;41.31
27304;BME280;14791;52.392;13.092;2023-09-12T00:11:59;100747.36;;;25.86;41.37
27304;BME280;14791;52.392;13.092;2023-09-12T00:14:28;100755.06;;;25.83;41.39
27304;BME280;14791;52.392;13.092;2023-09-12T00:16:57;100755.45;;;25.80;41.48
27304;BME280;14791;52.392;13.092;2023-09-12T00:19:26;100757.41;;;25.75;41.56
27304;BME280;14791;52.392;13.092;2023-09-12T00:21:54;100752.33;;;25.72;41.59
27304;BME280;14791;52.392;13.092;2023-09-12T00:24:23;100755.77;;;25.70;41.59
27304;BME280;14791;52.392;13.092;2023-09-12T00:26:52;100755.43;;;25.69;41.65
27304;BME280;14791;52.392;13.092;2023-09-12T00:29:21;100760.27;;;25.67;41.67
27304;BME280;14791;52.392;13.092;2023-09-12T00:31:50;100751.94;;;25.64;41.74
27304;BME280;14791;52.392;13.092;2023-09-12T00:34:19;100752.30;;;25.61;41.77
27304;BME280;14791;52.392;13.092;2023-09-12T00:36:48;100757.84;;;25.57;41.85
27304;BME280;14791;52.392;13.092;2023-09-12T00:39:17;100756.84;;;25.54;41.86
27304;BME280;14791;52.392;13.092;2023-09-12T00:41:45;100756.39;;;25.51;41.87
27304;BME280;14791;52.392;13.092;2023-09-12T00:44:14;100756.27;;;25.48;41.76
27304;BME280;14791;52.392;13.092;2023-09-12T00:46:45;100750.14;;;25.46;41.90
27304;BME280;14791;52.392;13.092;2023-09-12T00:49:14;100750.84;;;25.44;41.96
27304;BME280;14791;52.392;13.092;2023-09-12T00:51:45;100753.44;;;25.41;41.98
27304;BME280;14791;52.392;13.092;2023-09-12T00:54:14;100753.30;;;25.39;41.99
27304;BME280;14791;52.392;13.092;2023-09-12T00:56:44;100757.80;;;25.36;42.01
27304;BME280;14791;52.392;13.092;2023-09-12T00:59:15;100749.64;;;25.32;42.07
27304;BME280;14791;52.392;13.092;2023-09-12T01:01:45;100744.36;;;25.30;42.06
27304;BME280;14791;52.392;13.092;2023-09-12T01:04:14;100741.70;;;25.26;42.14
27304;BME280;14791;52.392;13.092;2023-09-12T01:06:43;100740.16;;;25.23;42.22
27304;BME280;14791;52.392;13.092;2023-09-12T01:09:13;100739.53;;;25.21;42.31
27304;BME280;14791;52.392;13.092;2023-09-12T01:11:42;100744.34;;;25.19;42.31
27304;BME280;14791;52.392;13.092;2023-09-12T01:14:11;100743.30;;;25.16;42.32
27304;BME280;14791;52.392;13.092;2023-09-12T01:16:41;100743.69;;;25.13;42.37
27304;BME280;14791;52.392;13.092;2023-09-12T01:19:12;100748.48;;;25.11;42.42
27304;BME280;14791;52.392;13.092;2023-09-12T01:24:44;100744.45;;;25.07;42.48
27304;BME280;14791;52.392;13.092;2023-09-12T01:27:30;100747.94;;;25.01;42.54
27304;BME280;14791;52.392;13.092;2023-09-12T01:30:03;100753.13;;;24.96;42.58
27304;BME280;14791;52.392;13.092;2023-09-12T01:32:34;100750.47;;;24.88;42.67
27304;BME280;14791;52.392;13.092;2023-09-12T01:35:04;100749.17;;;24.83;42.71
27304;BME280;14791;52.392;13.092;2023-09-12T01:37:33;100747.45;;;24.82;42.79
27304;BME280;14791;52.392;13.092;2023-09-12T01:40:03;100744.05;;;24.80;42.76
27304;BME280;14791;52.392;13.092;2023-09-12T01:42:35;100748.22;;;24.76;42.82
27304;BME280;14791;52.392;13.092;2023-09-12T01:45:04;100748.89;;;24.78;42.86
27304;BME280;14791;52.392;13.092;2023-09-12T01:47:35;100747.70;;;24.77;42.85
27304;BME280;14791;52.392;13.092;2023-09-12T01:50:06;100745.14;;;24.75;42.91
27304;BME280;14791;52.392;13.092;2023-09-12T01:52:36;100742.62;;;24.74;42.99
27304;BME280;14791;52.392;13.092;2023-09-12T01:55:07;100743.31;;;24.72;43.05
27304;BME280;14791;52.392;13.092;2023-09-12T01:57:39;100737.02;;;24.71;43.07
27304;BME280;14791;52.392;13.092;2023-09-12T02:00:09;100738.73;;;24.68;43.11
27304;BME280;14791;52.392;13.092;2023-09-12T02:02:40;100737.05;;;24.67;43.04
27304;BME280;14791;52.392;13.092;2023-09-12T02:05:15;100740.48;;;24.65;43.04
27304;BME280;14791;52.392;13.092;2023-09-12T02:07:46;100738.45;;;24.63;43.10
27304;BME280;14791;52.392;13.092;2023-09-12T02:10:16;100732.84;;;24.60;43.21
27304;BME280;14791;52.392;13.092;2023-09-12T02:12:44;100725.70;;;24.59;43.24
27304;BME280;14791;52.392;13.092;2023-09-12T02:15:13;100725.03;;;24.57;43.30
27304;BME280;14791;52.392;13.092;2023-09-12T02:17:43;100721.47;;;24.57;43.33
27304;BME280;14791;52.392;13.092;2023-09-12T02:20:12;100721.81;;;24.54;43.34
27304;BME280;14791;52.392;13.092;2023-09-12T02:22:41;100725.77;;;24.51;43.35
27304;BME280;14791;52.392;13.092;2023-09-12T02:25:10;100725.98;;;24.50;43.39
27304;BME280;14791;52.392;13.092;2023-09-12T02:27:39;100728.04;;;24.48;43.42
27304;BME280;14791;52.392;13.092;2023-09-12T02:30:08;100728.70;;;24.46;43.44
27304;BME280;14791;52.392;13.092;2023-09-12T02:32:37;100727.52;;;24.44;43.48
27304;BME280;14791;52.392;13.092;2023-09-12T02:35:06;100723.27;;;24.41;43.50
27304;BME280;14791;52.392;13.092;2023-09-12T02:37:35;100723.66;;;24.38;43.51
27304;BME280;14791;52.392;13.092;2023-09-12T02:40:04;100722.67;;;24.35;43.53
27304;BME280;14791;52.392;13.092;2023-09-12T02:42:34;100723.69;;;24.34;43.58
27304;BME280;14791;52.392;13.092;2023-09-12T02:45:04;100718.08;;;24.32;43.55
27304;BME280;14791;52.392;13.092;2023-09-12T02:47:33;100720.66;;;24.29;43.62
27304;BME280;14791;52.392;13.092;2023-09-12T02:50:02;100722.73;;;24.27;43.66
27304;BME280;14791;52.392;13.092;2023-09-12T02:52:32;100721.73;;;24.24;43.67
27304;BME280;14791;52.392;13.092;2023-09-12T02:55:01;100720.41;;;24.20;43.56
27304;BME280;14791;52.392;13.092;2023-09-12T02:57:30;100717.36;;;24.19;43.54
27304;BME280;14791;52.392;13.092;2023-09-12T02:59:59;100715.64;;;24.18;43.61
27304;BME280;14791;52.392;13.092;2023-09-12T03:02:28;100709.86;;;24.17;43.71
27304;BME280;14791;52.392;13.092;2023-09-12T03:04:57;100712.28;;;24.16;43.73
27304;BME280;14791;52.392;13.092;2023-09-12T03:07:26;100713.29;;;24.15;43.79
27304;BME280;14791;52.392;13.092;2023-09-12T03:09:55;100721.16;;;24.14;43.83
27304;BME280;14791;52.392;13.092;2023-09-12T03:12:23;100716.71;;;24.13;43.87
27304;BME280;14791;52.392;13.092;2023-09-12T03:14:52;100722.86;;;24.11;43.85
27304;BME280;14791;52.392;13.092;2023-09-12T03:17:21;100714.68;;;24.11;43.89
27304;BME280;14791;52.392;13.092;2023-09-12T03:19:51;100718.45;;;24.10;43.90
27304;BME280;14791;52.392;13.092;2023-09-12T03:22:20;100717.78;;;24.08;43.94
27304;BME280;14791;52.392;13.092;2023-09-12T03:24:49;100719.32;;;24.06;44.01
27304;BME280;14791;52.392;13.092;2023-09-12T03:27:17;100715.08;;;24.04;44.01
27304;BME280;14791;52.392;13.092;2023-09-12T03:29:49;100717.17;;;24.02;44.03
27304;BME280;14791;52.392;13.092;2023-09-12T03:32:18;100719.55;;;24.01;44.07
27304;BME280;14791;52.392;13.092;2023-09-12T03:34:47;100714.47;;;23.97;43.94
27304;BME280;14791;52.392;13.092;2023-09-12T03:37:16;100720.30;;;23.94;44.04
27304;BME280;14791;52.392;13.092;2023-09-12T03:39:46;100721.66;;;23.94;44.09
27304;BME280;14791;52.392;13.092;2023-09-12T03:42:15;100716.55;;;23.91;44.14
27304;BME280;14791;52.392;13.092;2023-09-12T03:44:44;100727.45;;;23.91;43.99
27304;BME280;14791;52.392;13.092;2023-09-12T03:47:13;100725.25;;;23.91;43.98
27304;BME280;14791;52.392;13.092;2023-09-12T03:49:42;100727.66;;;23.90;44.08
27304;BME280;14791;52.392;13.092;2023-09-12T03:52:10;100732.59;;;23.90;44.01
27304;BME280;14791;52.392;13.092;2023-09-12T03:54:39;100729.19;;;23.88;44.13
27304;BME280;14791;52.392;13.092;2023-09-12T03:57:09;100728.87;;;23.87;44.03
27304;BME280;14791;52.392;13.092;2023-09-12T03:59:38;100720.02;;;23.85;44.18
27304;BME280;14791;52.392;13.092;2023-09-12T04:02:08;100729.21;;;23.84;44.19
27304;BME280;14791;52.392;13.092;2023-09-12T04:04:37;100727.53;;;23.83;44.29
27304;BME280;14791;52.392;13.092;2023-09-12T04:07:06;100728.55;;;23.82;44.19
27304;BME280;14791;52.392;13.092;2023-09-12T04:09:35;100719.20;;;23.81;44.17
27304;BME280;14791;52.392;13.092;2023-09-12T04:12:05;100714.75;;;23.80;44.34
27304;BME280;14791;52.392;13.092;2023-09-12T04:14:35;100712.23;;;23.78;44.39
27304;BME280;14791;52.392;13.092;2023-09-12T04:17:04;100716.49;;;23.76;44.37
27304;BME280;14791;52.392;13.092;2023-09-12T04:19:33;100716.66;;;23.75;44.42
27304;BME280;14791;52.392;13.092;2023-09-12T04:22:01;100712.91;;;23.72;44.49
27304;BME280;14791;52.392;13.092;2023-09-12T04:24:32;100714.45;;;23.70;44.52
27304;BME280;14791;52.392;13.092;2023-09-12T04:27:01;100711.56;;;23.68;44.51
27304;BME280;14791;52.392;13.092;2023-09-12T04:29:33;100717.74;;;23.66;44.56
27304;BME280;14791;52.392;13.092;2023-09-12T04:32:06;100715.35;;;23.63;44.63
27304;BME280;14791;52.392;13.092;2023-09-12T04:34:35;100719.49;;;23.59;44.58
27304;BME280;14791;52.392;13.092;2023-09-12T04:37:04;100719.83;;;23.55;44.72
27304;BME280;14791;52.392;13.092;2023-09-12T04:39:33;100731.78;;;23.54;44.78
27304;BME280;14791;52.392;13.092;2023-09-12T04:42:02;100731.94;;;23.53;44.85
27304;BME280;14791;52.392;13.092;2023-09-12T04:44:42;100733.83;;;23.52;44.89
27304;BME280;14791;52.392;13.092;2023-09-12T04:47:11;100735.19;;;23.52;44.92
27304;BME280;14791;52.392;13.092;2023-09-12T04:49:40;100735.19;;;23.52;44.92
27304;BME280;14791;52.392;13.092;2023-09-12T04:52:09;100728.05;;;23.51;44.93
27304;BME280;14791;52.392;13.092;2023-09-12T04:54:38;100739.60;;;23.53;44.98
27304;BME280;14791;52.392;13.092;2023-09-12T04:57:08;100738.23;;;23.53;44.86
27304;BME280;14791;52.392;13.092;2023-09-12T04:59:37;100733.81;;;23.56;44.91
27304;BME280;14791;52.392;13.092;2023-09-12T05:02:06;100734.13;;;23.57;44.88
27304;BME280;14791;52.392;13.092;2023-09-12T05:04:34;100730.72;;;23.60;44.98
27304;BME280;14791;52.392;13.092;2023-09-12T05:07:03;100730.03;;;23.62;44.93
27304;BME280;14791;52.392;13.092;2023-09-12T05:09:32;100738.68;;;23.65;44.98
27304;BME280;14791;52.392;13.092;2023-09-12T05:12:01;100739.88;;;23.67;45.01
27304;BME280;14791;52.392;13.092;2023-09-12T05:14:30;100742.59;;;23.71;45.02
27304;BME280;14791;52.392;13.092;2023-09-12T05:16:59;100744.63;;;23.73;45.04
27304;BME280;14791;52.392;13.092;2023-09-12T05:19:30;100742.92;;;23.76;45.03
27304;BME280;14791;52.392;13.092;2023-09-12T05:21:59;100746.64;;;23.79;45.01
27304;BME280;14791;52.392;13.092;2023-09-12T05:24:28;100747.14;;;23.83;45.04
27304;BME280;14791;52.392;13.092;2023-09-12T05:26:57;100743.52;;;23.86;45.04
27304;BME280;14791;52.392;13.092;2023-09-12T05:29:26;100747.59;;;23.90;45.01
27304;BME280;14791;52.392;13.092;2023-09-12T05:31:55;100748.06;;;23.94;45.01
27304;BME280;14791;52.392;13.092;2023-09-12T05:34:24;100756.05;;;23.99;45.01
27304;BME280;14791;52.392;13.092;2023-09-12T05:36:53;100750.55;;;24.04;44.96
27304;BME280;14791;52.392;13.092;2023-09-12T05:39:22;100753.77;;;24.07;44.95
27304;BME280;14791;52.392;13.092;2023-09-12T05:41:51;100765.51;;;24.12;44.92
27304;BME280;14791;52.392;13.092;2023-09-12T05:44:20;100760.34;;;24.17;44.92
27304;BME280;14791;52.392;13.092;2023-09-12T05:46:49;100766.09;;;24.22;44.94
27304;BME280;14791;52.392;13.092;2023-09-12T05:49:18;100758.41;;;24.26;44.90
27304;BME280;14791;52.392;13.092;2023-09-12T05:51:47;100761.23;;;24.32;44.87
27304;BME280;14791;52.392;13.092;2023-09-12T05:54:16;100775.20;;;24.37;44.78
27304;BME280;14791;52.392;13.092;2023-09-12T05:56:47;100777.70;;;24.43;44.75
27304;BME280;14791;52.392;13.092;2023-09-12T05:59:16;100768.14;;;24.47;44.53
27304;BME280;14791;52.392;13.092;2023-09-12T06:01:45;100758.36;;;24.53;44.69
27304;BME280;14791;52.392;13.092;2023-09-12T06:04:14;100768.34;;;24.60;44.72
27304;BME280;14791;52.392;13.092;2023-09-12T06:06:43;100780.22;;;24.68;44.68
27304;BME280;14791;52.392;13.092;2023-09-12T06:09:13;100774.87;;;24.74;44.50
27304;BME280;14791;52.392;13.092;2023-09-12T06:11:42;100769.83;;;24.82;44.51
27304;BME280;14791;52.392;13.092;2023-09-12T06:14:11;100769.59;;;24.88;44.55
27304;BME280;14791;52.392;13.092;2023-09-12T06:16:40;100780.44;;;24.96;44.46
27304;BME280;14791;52.392;13.092;2023-09-12T06:19:08;100775.39;;;25.03;44.36
27304;BME280;14791;52.392;13.092;2023-09-12T06:21:37;100782.64;;;25.11;44.27
27304;BME280;14791;52.392;13.092;2023-09-12T06:24:20;100777.84;;;25.17;44.14
27304;BME280;14791;52.392;13.092;2023-09-12T06:26:49;100779.30;;;25.24;44.05
27304;BME280;14791;52.392;13.092;2023-09-12T06:29:19;100782.83;;;25.29;44.00
27304;BME280;14791;52.392;13.092;2023-09-12T06:31:47;100784.27;;;25.35;43.97
27304;BME280;14791;52.392;13.092;2023-09-12T06:34:16;100788.45;;;25.42;43.92
27304;BME280;14791;52.392;13.092;2023-09-12T06:36:45;100789.39;;;25.49;43.90
27304;BME280;14791;52.392;13.092;2023-09-12T06:39:14;100788.95;;;25.56;43.87
27304;BME280;14791;52.392;13.092;2023-09-12T06:41:43;100792.09;;;25.64;43.66
27304;BME280;14791;52.392;13.092;2023-09-12T06:44:12;100803.95;;;25.71;43.53
27304;BME280;14791;52.392;13.092;2023-09-12T06:46:41;100794.47;;;25.78;43.35
27304;BME280;14791;52.392;13.092;2023-09-12T06:49:10;100809.06;;;25.85;43.40
27304;BME280;14791;52.392;13.092;2023-09-12T06:51:39;100813.10;;;25.93;43.27
27304;BME280;14791;52.392;13.092;2023-09-12T06:54:08;100802.73;;;25.99;43.24
27304;BME280;14791;52.392;13.092;2023-09-12T06:56:37;100797.16;;;26.07;43.18
27304;BME280;14791;52.392;13.092;2023-09-12T06:59:06;100798.38;;;26.16;42.95
27304;BME280;14791;52.392;13.092;2023-09-12T07:01:35;100800.00;;;26.21;42.83
27304;BME280;14791;52.392;13.092;2023-09-12T07:04:05;100800.20;;;26.30;42.67
27304;BME280;14791;52.392;13.092;2023-09-12T07:06:34;100801.11;;;26.37;42.74
27304;BME280;14791;52.392;13.092;2023-09-12T07:09:04;100799.28;;;26.44;42.71
27304;BME280;14791;52.392;13.092;2023-09-12T07:11:34;100793.64;;;26.52;42.58
27304;BME280;14791;52.392;13.092;2023-09-12T07:14:03;100801.23;;;26.61;42.48
27304;BME280;14791;52.392;13.092;2023-09-12T07:16:33;100796.13;;;26.69;42.45
27304;BME280;14791;52.392;13.092;2023-09-12T07:19:02;100793.26;;;26.77;42.42
27304;BME280;14791;52.392;13.092;2023-09-12T07:21:32;100790.35;;;26.85;42.18
27304;BME280;14791;52.392;13.092;2023-09-12T07:24:01;100801.14;;;26.93;42.14
27304;BME280;14791;52.392;13.092;2023-09-12T07:26:30;100805.12;;;27.02;42.08
27304;BME280;14791;52.392;13.092;2023-09-12T07:28:59;100807.38;;;27.09;41.99
27304;BME280;14791;52.392;13.092;2023-09-12T07:31:29;100804.16;;;27.16;42.00
27304;BME280;14791;52.392;13.092;2023-09-12T07:33:58;100804.73;;;27.22;41.96
27304;BME280;14791;52.392;13.092;2023-09-12T07:36:27;100808.35;;;27.29;41.99
27304;BME280;14791;52.392;13.092;2023-09-12T07:38:56;100803.75;;;27.36;41.90
27304;BME280;14791;52.392;13.092;2023-09-12T07:41:25;100796.09;;;27.43;41.94
27304;BME280;14791;52.392;13.092;2023-09-12T07:43:54;100792.02;;;27.49;41.95
27304;BME280;14791;52.392;13.092;2023-09-12T07:46:23;100793.08;;;27.55;41.93
27304;BME280;14791;52.392;13.092;2023-09-12T07:48:52;100802.18;;;27.62;41.94
27304;BME280;14791;52.392;13.092;2023-09-12T07:51:20;100808.73;;;27.68;41.92
27304;BME280;14791;52.392;13.092;2023-09-12T07:53:50;100806.36;;;27.75;41.88
27304;BME280;14791;52.392;13.092;2023-09-12T07:56:19;100803.14;;;27.83;41.89
27304;BME280;14791;52.392;13.092;2023-09-12T07:58:49;100797.88;;;27.88;41.88
27304;BME280;14791;52.392;13.092;2023-09-12T08:01:17;100792.83;;;27.98;41.80
27304;BME280;14791;52.392;13.092;2023-09-12T08:03:46;100807.10;;;28.04;41.69
27304;BME280;14791;52.392;13.092;2023-09-12T08:06:15;100793.17;;;28.12;41.64
27304;BME280;14791;52.392;13.092;2023-09-12T08:08:44;100798.14;;;28.19;41.58
27304;BME280;14791;52.392;13.092;2023-09-12T08:11:13;100794.14;;;28.29;41.24
27304;BME280;14791;52.392;13.092;2023-09-12T08:13:42;100786.55;;;28.37;41.32
27304;BME280;14791;52.392;13.092;2023-09-12T08:16:11;100793.03;;;28.47;41.28
27304;BME280;14791;52.392;13.092;2023-09-12T08:18:40;100795.86;;;28.56;41.19
27304;BME280;14791;52.392;13.092;2023-09-12T08:21:10;100798.20;;;28.66;41.09
27304;BME280;14791;52.392;13.092;2023-09-12T08:23:39;100794.69;;;28.75;40.97
27304;BME280;14791;52.392;13.092;2023-09-12T08:26:08;100795.86;;;28.83;40.89
27304;BME280;14791;52.392;13.092;2023-09-12T08:28:37;100805.55;;;28.92;40.85
27304;BME280;14791;52.392;13.092;2023-09-12T08:31:06;100813.59;;;29.00;40.73
27304;BME280;14791;52.392;13.092;2023-09-12T08:33:35;100807.58;;;29.08;40.72
27304;BME280;14791;52.392;13.092;2023-09-12T08:36:04;100805.12;;;29.15;40.67
27304;BME280;14791;52.392;13.092;2023-09-12T08:38:33;100806.48;;;29.22;40.63
27304;BME280;14791;52.392;13.092;2023-09-12T08:41:02;100818.61;;;29.30;40.59
27304;BME280;14791;52.392;13.092;2023-09-12T08:43:31;100811.19;;;29.37;40.47
27304;BME280;14791;52.392;13.092;2023-09-12T08:46:00;100810.97;;;29.45;40.44
27304;BME280;14791;52.392;13.092;2023-09-12T08:48:30;100820.34;;;29.54;40.32
27304;BME280;14791;52.392;13.092;2023-09-12T08:51:00;100826.98;;;29.62;40.36
27304;BME280;14791;52.392;13.092;2023-09-12T08:53:31;100833.64;;;29.70;40.30
27304;BME280;14791;52.392;13.092;2023-09-12T08:56:00;100841.34;;;29.77;40.30
27304;BME280;14791;52.392;13.092;2023-09-12T08:58:32;100844.37;;;29.85;40.27
27304;BME280;14791;52.392;13.092;2023-09-12T09:01:01;100855.74;;;29.95;40.28
27304;BME280;14791;52.392;13.092;2023-09-12T09:03:31;100852.42;;;30.02;40.29
27304;BME280;14791;52.392;13.092;2023-09-12T09:06:02;100867.63;;;30.11;40.01
27304;BME280;14791;52.392;13.092;2023-09-12T09:08:32;100864.09;;;30.20;40.06
27304;BME280;14791;52.392;13.092;2023-09-12T09:11:01;100871.81;;;30.27;39.66
27304;BME280;14791;52.392;13.092;2023-09-12T09:13:31;100870.61;;;30.33;39.50
27304;BME280;14791;52.392;13.092;2023-09-12T09:16:17;100882.55;;;30.36;39.49
27304;BME280;14791;52.392;13.092;2023-09-12T09:18:54;100881.80;;;30.38;39.47
27304;BME280;14791;52.392;13.092;2023-09-12T09:21:30;100880.67;;;30.36;39.53
27304;BME280;14791;52.392;13.092;2023-09-12T09:24:03;100884.47;;;30.35;39.63
27304;BME280;14791;52.392;13.092;2023-09-12T09:26:45;100887.44;;;30.34;39.49
27304;BME280;14791;52.392;13.092;2023-09-12T09:29:22;100878.66;;;30.34;39.44
27304;BME280;14791;52.392;13.092;2023-09-12T09:31:48;100874.45;;;30.31;39.42
27304;BME280;14791;52.392;13.092;2023-09-12T09:34:21;100881.33;;;30.31;39.32
27304;BME280;14791;52.392;13.092;2023-09-12T09:36:56;100881.63;;;30.33;39.26
27304;BME280;14791;52.392;13.092;2023-09-12T09:39:27;100877.20;;;30.31;39.30
27304;BME280;14791;52.392;13.092;2023-09-12T09:41:59;100871.45;;;30.33;39.32
27304;BME280;14791;52.392;13.092;2023-09-12T09:44:28;100867.73;;;30.37;39.32
27304;BME280;14791;52.392;13.092;2023-09-12T09:47:01;100866.20;;;30.41;39.33
27304;BME280;14791;52.392;13.092;2023-09-12T09:49:34;100866.41;;;30.46;39.28
27304;BME280;14791;52.392;13.092;2023-09-12T09:52:06;100863.19;;;30.49;39.23
27304;BME280;14791;52.392;13.092;2023-09-12T09:54:35;100852.34;;;30.54;39.07
27304;BME280;14791;52.392;13.092;2023-09-12T09:57:04;100849.45;;;30.58;39.03
27304;BME280;14791;52.392;13.092;2023-09-12T09:59:33;100838.27;;;30.62;38.99
27304;BME280;14791;52.392;13.092;2023-09-12T10:02:03;100841.43;;;30.66;38.97
27304;BME280;14791;52.392;13.092;2023-09-12T10:04:34;100830.57;;;30.71;38.88
27304;BME280;14791;52.392;13.092;2023-09-12T10:07:04;100837.41;;;30.78;38.71
27304;BME280;14791;52.392;13.092;2023-09-12T10:09:35;100843.74;;;30.85;38.65
27304;BME280;14791;52.392;13.092;2023-09-12T10:12:04;100834.25;;;30.90;38.58
27304;BME280;14791;52.392;13.092;2023-09-12T10:14:34;100826.76;;;30.97;38.53
27304;BME280;14791;52.392;13.092;2023-09-12T10:17:03;100813.74;;;31.04;38.50
27304;BME280;14791;52.392;13.092;2023-09-12T10:19:43;100820.03;;;31.11;38.27
27304;BME280;14791;52.392;13.092;2023-09-12T10:22:18;100821.42;;;31.21;38.18
27304;BME280;14791;52.392;13.092;2023-09-12T10:24:46;100822.41;;;31.26;38.08
27304;BME280;14791;52.392;13.092;2023-09-12T10:27:15;100828.95;;;31.32;37.98
27304;BME280;14791;52.392;13.092;2023-09-12T10:29:46;100827.47;;;31.38;37.93
27304;BME280;14791;52.392;13.092;2023-09-12T10:32:18;100831.89;;;31.46;37.98
27304;BME280;14791;52.392;13.092;2023-09-12T10:34:49;100830.19;;;31.54;37.79
27304;BME280;14791;52.392;13.092;2023-09-12T10:37:19;100835.38;;;31.63;37.45
27304;BME280;14791;52.392;13.092;2023-09-12T10:39:51;100833.09;;;31.69;37.17
27304;BME280;14791;52.392;13.092;2023-09-12T10:42:21;100836.61;;;31.76;36.82
27304;BME280;14791;52.392;13.092;2023-09-12T10:44:52;100819.34;;;31.81;36.64
27304;BME280;14791;52.392;13.092;2023-09-12T10:47:23;100827.47;;;31.85;36.54
27304;BME280;14791;52.392;13.092;2023-09-12T10:49:52;100829.21;;;31.88;36.55
27304;BME280;14791;52.392;13.092;2023-09-12T10:52:25;100831.05;;;31.94;36.50
27304;BME280;14791;52.392;13.092;2023-09-12T10:54:54;100825.38;;;31.98;36.37
27304;BME280;14791;52.392;13.092;2023-09-12T10:57:24;100835.72;;;32.03;36.31
27304;BME280;14791;52.392;13.092;2023-09-12T11:02:37;100830.85;;;32.17;36.26
27304;BME280;14791;52.392;13.092;2023-09-12T11:07:59;100822.02;;;32.38;36.27
27304;BME280;14791;52.392;13.092;2023-09-12T11:10:28;100826.77;;;32.50;36.24
27304;BME280;14791;52.392;13.092;2023-09-12T11:12:59;100827.63;;;32.62;36.08
27304;BME280;14791;52.392;13.092;2023-09-12T11:15:28;100824.04;;;32.73;35.85
27304;BME280;14791;52.392;13.092;2023-09-12T11:18:07;100828.70;;;32.84;35.74
27304;BME280;14791;52.392;13.092;2023-09-12T11:21:02;100826.50;;;32.96;35.53
27304;BME280;14791;52.392;13.092;2023-09-12T11:23:23;100824.16;;;33.02;35.52
27304;BME280;14791;52.392;13.092;2023-09-12T11:26:04;100823.98;;;33.06;35.36
27304;BME280;14791;52.392;13.092;2023-09-12T11:28:34;100826.34;;;33.12;35.24
27304;BME280;14791;52.392;13.092;2023-09-12T11:31:04;100824.96;;;33.12;35.09
27304;BME280;14791;52.392;13.092;2023-09-12T11:33:34;100823.03;;;33.12;35.06
27304;BME280;14791;52.392;13.092;2023-09-12T11:36:04;100817.50;;;33.12;35.06
27304;BME280;14791;52.392;13.092;2023-09-12T11:38:35;100825.25;;;33.13;35.01
27304;BME280;14791;52.392;13.092;2023-09-12T11:41:04;100819.48;;;33.14;34.86
27304;BME280;14791;52.392;13.092;2023-09-12T11:43:33;100825.53;;;33.14;34.83
27304;BME280;14791;52.392;13.092;2023-09-12T11:46:07;100822.86;;;33.16;34.84
27304;BME280;14791;52.392;13.092;2023-09-12T11:48:36;100823.14;;;33.17;34.87
27304;BME280;14791;52.392;13.092;2023-09-12T11:51:08;100814.61;;;33.19;34.95
27304;BME280;14791;52.392;13.092;2023-09-12T11:53:37;100816.05;;;33.21;34.88
27304;BME280;14791;52.392;13.092;2023-09-12T11:56:06;100819.70;;;33.24;34.88
27304;BME280;14791;52.392;13.092;2023-09-12T11:58:35;100815.11;;;33.30;34.83
27304;BME280;14791;52.392;13.092;2023-09-12T12:01:05;100814.38;;;33.35;34.93
27304;BME280;14791;52.392;13.092;2023-09-12T12:03:34;100823.16;;;33.43;34.79
27304;BME280;14791;52.392;13.092;2023-09-12T12:06:03;100827.75;;;33.52;34.59
27304;BME280;14791;52.392;13.092;2023-09-12T12:08:32;100827.70;;;33.61;34.55
27304;BME280;14791;52.392;13.092;2023-09-12T12:11:01;100833.20;;;33.73;34.41
27304;BME280;14791;52.392;13.092;2023-09-12T12:13:32;100825.22;;;33.88;34.33
27304;BME280;14791;52.392;13.092;2023-09-12T12:16:02;100818.06;;;34.07;34.28
27304;BME280;14791;52.392;13.092;2023-09-12T12:18:31;100819.20;;;34.37;34.14
27304;BME280;14791;52.392;13.092;2023-09-12T12:21:00;100820.20;;;34.79;33.85
27304;BME280;14791;52.392;13.092;2023-09-12T12:23:29;100824.56;;;35.31;33.40
27304;BME280;14791;52.392;13.092;2023-09-12T12:26:07;100825.02;;;35.89;32.98
27304;BME280;14791;52.392;13.092;2023-09-12T12:28:33;100819.85;;;36.54;32.29
27304;BME280;14791;52.392;13.092;2023-09-12T12:31:03;100816.15;;;37.21;31.58
27304;BME280;14791;52.392;13.092;2023-09-12T12:33:32;100812.55;;;37.88;31.08
27304;BME280;14791;52.392;13.092;2023-09-12T12:36:05;100814.60;;;38.57;30.31
27304;BME280;14791;52.392;13.092;2023-09-12T12:38:37;100811.16;;;39.22;29.48
27304;BME280;14791;52.392;13.092;2023-09-12T12:41:06;100804.20;;;39.84;28.96
27304;BME280;14791;52.392;13.092;2023-09-12T12:43:35;100808.00;;;40.43;28.53
27304;BME280;14791;52.392;13.092;2023-09-12T12:46:04;100809.17;;;40.98;27.70
27304;BME280;14791;52.392;13.092;2023-09-12T12:48:35;100811.98;;;41.46;27.06
27304;BME280;14791;52.392;13.092;2023-09-12T12:51:22;100798.81;;;41.87;27.19
27304;BME280;14791;52.392;13.092;2023-09-12T12:53:53;100802.48;;;42.23;26.56
27304;BME280;14791;52.392;13.092;2023-09-12T12:56:27;100788.20;;;42.55;25.84
27304;BME280;14791;52.392;13.092;2023-09-12T12:58:59;100780.70;;;42.83;25.32
27304;BME280;14791;52.392;13.092;2023-09-12T13:01:31;100786.00;;;43.12;24.95
27304;BME280;14791;52.392;13.092;2023-09-12T13:04:00;100773.84;;;43.44;24.73